Дата Пункты Температура Давл., мм. Влажн., % Ветер Погодные явления
Воздуха Воды Направл. Скорость
21.09.18 03:00 Одесса 17.0 21.0 761 64 З 4 03 ЧАСА
20.09.18 09:00 Одесса 19.0 21.0 762 64 З 2 21 ЧАС
20.09.18 06:00 Одесса 23.0 21.0 762 53 С 0 18 ЧАСОВ
20.09.18 03:00 Одесса 23.0 21.0 763 54 Ю-В 3 15 ЧАСОВ
20.09.18 12:00 Одесса 22.0 21.0 764 61 С 0 12 ЧАСОВ
20.09.18 09:00 Одесса 21.0 21.0 764 66 С 0 09 ЧАСОВ
20.09.18 06:00 Одесса 14.0 21.0 764 86 С 0 06 ЧАСОВ
20.09.18 03:00 Одесса 15.0 21.0 764 90 З 2 03 ЧАСА
19.09.18 09:00 Одесса 18.0 21.0 764 71 З 3 21 ЧАС
19.09.18 06:00 Одесса 21.0 21.0 764 60 Ю 2 18 ЧАСОВ
19.09.18 03:00 Одесса 22.0 21.0 765 61 Ю 4 15 ЧАСОВ
19.09.18 12:00 Одесса 21.0 21.0 765 67 Ю-В 2 12 ЧАСОВ
19.09.18 09:00 Одесса 20.0 21.0 765 62 С 0 09 ЧАСОВ
19.09.18 06:00 Одесса 15.0 21.0 765 84 З 2 06 ЧАСОВ
19.09.18 03:00 Одесса 15.0 21.0 764 83 З 2 03 ЧАСА
18.09.18 09:00 Одесса 18.0 21.0 764 64 З 2 21 ЧАС
18.09.18 06:00 Одесса 20.0 21.0 764 56 Ю 2 18 ЧАСОВ
18.09.18 03:00 Одесса 21.0 21.0 765 55 Ю 3 15 ЧАСОВ
18.09.18 12:00 Одесса 20.0 21.0 766 63 С-В 3 12 ЧАСОВ
18.09.18 09:00 Одесса 19.0 21.0 766 62 С-З 1 09 ЧАСОВ
Количество строк
1 2 3 4 5 6 7 8 9 10
Page 2 of 407